San Diego, CA (92139)

6:39 AM PDT on September 01, 2014 (GMT -0700)
Bonita Rd | Change Station
CLOSE
Current Station
Personal Weather Station
Location: Chula Vista, CA
Elevation: 85 ft
Nearby Weather Stations
Active Advisory: Beach Hazard Statement

Elev 85 ft 32.65 °N, 117.05 °W | Updated 5 minutes ago

Overcast
Overcast
67.7 °F
Feels Like 67.7 °F
N
0.0
Wind Variable Wind from West

Today
High -- | Low -- °F
--% Chance of Precip.
Yesterday
High -- | Low -- °F
Precip. -- in
6:23 AM 7:12 PM
Waxing Crescent, 41% visible
Pressure 29.81 in
Visibility 4.0 miles
Clouds Overcast 600 ft
Dew Point 64 °F
Humidity 89%
Rainfall 0.00 in
Snow Depth Not available.
UV 0 out of 12
Pollen 8.30 out of 12
Ozone Good
PM2.5 Good
Flu Activity Not available.
METAR KSDM 011253Z AUTO 00000KT 4SM BR OVC006 18/17 A2982 RMK AO2 SLP093 T01830172 TSNO $

More Conditions Fewer Conditions

Pressure 29.81 in
Visibility 4.0 miles
Clouds Overcast 600 ft
Dew Point 64 °F
Humidity 89%
Rainfall 0.00 in
Snow Depth Not available.
UV 0 out of 12
Pollen 8.30 out of 12
Ozone Good
PM2.5 Good
Flu Activity Not available.
METAR KSDM 011253Z AUTO 00000KT 4SM BR OVC006 18/17 A2982 RMK AO2 SLP093 T01830172 TSNO $

More Conditions Fewer Conditions

10-Day Weather Forecast

Almanac

Astronomy

Sep. 01, 2014 Rise Set
Actual Time 6:23 AM PDT 7:12 PM PDT
Civil Twilight 5:57 AM PDT 7:37 PM PDT
Nautical Twilight 5:28 AM PDT 8:07 PM PDT
Astronomical Twilight 4:57 AM PDT 8:37 PM PDT
Moon 12:51 PM PDT 11:40 PM PDT
Length of Visible Light 13h 39m
Length of Day
12h 49m
Tomorrow will be 1m 56s shorter.
Waxing Crescent, 41% of the Moon is Illuminated
Today
Waxing Crescent
Sep 2
First Quarter
Sep 8
Full
Sep 15
Last Quarter
Sep 24
New

Today's Extremes

State Highs State Lows

Community

WunderPhotos

Upload Photos

1,749,217 photos uploaded!

Nearby

Air Quality

  Air Quality AQ Index Pollutant
Yesterday Moderate
PM2.5
Yesterday Good
OZONE
Current Good
PM2.5
Current Good
OZONE
Monday Good
PM2.5
Monday Good
OZONE

Snow Depth

Station Depth Elevation
Leavitt Lake 0 in 9400 ft
Leavitt Meadows 1 in 7200 ft
Sonora Pass 0 in 8800 ft
Summit Meadow 1 in 9122 ft
Ebbetts Pass 0 in 8700 ft

Earthquake Activity

City Distance Mag. Time & Date
No recent earthquake activity has been reported nearby.
Minimum magnitude displayed is 2.5.

Coastal Water Temperatures

Place Temperature
La Jolla, CA 69.1 °F
San Diego, CA 73.9 °F

Nearby Weather Stations